Time;durP1;ratioP1;P1;durP2;ratioP2;P2;SDS_P1;SDS_P2;PMS_P1;PMS_P2;Temp;Humidity;BMP_temperature;BMP_pressure;BME280_temperature;BME280_humidity;BME280_pressure;Samples;Min_cycle;Max_cycle;Signal;HPM_P1;HPM_P2
2021/06/17 00:00:25;;;;;;;8.98;3.88;;;17.50;60.10;;;;;;5063042;28;20029;-81
2021/06/17 00:02:54;;;;;;;8.13;4.68;;;17.50;61.20;;;;;;5060725;28;20032;-82
2021/06/17 00:05:27;;;;;;;7.85;3.97;;;17.50;61.30;;;;;;5075655;28;20381;-83
2021/06/17 00:07:53;;;;;;;9.55;4.30;;;17.50;61.50;;;;;;5075171;28;20482;-83
2021/06/17 00:10:34;;;;;;;17.20;5.00;;;17.50;62.60;;;;;;5075184;28;20094;-83
2021/06/17 00:13:05;;;;;;;11.55;4.88;;;17.40;62.90;;;;;;5075492;28;20052;-82
2021/06/17 00:15:33;;;;;;;9.98;4.65;;;17.30;63.50;;;;;;5075096;28;20024;-82
2021/06/17 00:17:59;;;;;;;10.68;4.53;;;17.20;63.50;;;;;;5060683;28;20017;-83
2021/06/17 00:20:26;;;;;;;9.43;5.07;;;17.20;62.90;;;;;;5075466;28;20066;-81
2021/06/17 00:22:52;;;;;;;13.02;4.32;;;17.20;64.20;;;;;;5074971;28;20021;-82
2021/06/17 00:25:18;;;;;;;14.10;4.78;;;17.20;64.10;;;;;;5074894;28;20027;-81
2021/06/17 00:27:44;;;;;;;10.93;4.65;;;17.20;64.50;;;;;;5075125;28;20421;-82
2021/06/17 00:30:15;;;;;;;7.43;4.43;;;17.20;64.20;;;;;;5074799;28;20016;-82
2021/06/17 00:32:41;;;;;;;19.63;5.47;;;17.20;64.70;;;;;;5057000;28;20028;-84
2021/06/17 00:35:08;;;;;;;9.10;4.45;;;17.10;65.00;;;;;;5074669;28;20150;-82
2021/06/17 00:37:34;;;;;;;11.40;4.82;;;17.10;64.60;;;;;;5075121;28;20488;-83
2021/06/17 00:40:01;;;;;;;12.10;4.72;;;17.10;64.60;;;;;;5062394;28;20056;-84
2021/06/17 00:42:27;;;;;;;17.45;5.47;;;17.10;64.40;;;;;;5083997;28;20423;-82
2021/06/17 00:44:53;;;;;;;12.32;4.45;;;17.10;64.70;;;;;;5080783;28;20032;-81
2021/06/17 00:47:18;;;;;;;14.30;5.25;;;17.10;65.40;;;;;;5069546;28;20024;-84
2021/06/17 00:49:47;;;;;;;11.18;4.57;;;17.10;65.70;;;;;;5087391;28;20020;-83
2021/06/17 00:52:17;;;;;;;11.55;5.38;;;17.00;66.70;;;;;;5089203;28;20420;-83
2021/06/17 00:54:45;;;;;;;16.83;5.60;;;17.00;66.50;;;;;;5074423;28;20052;-83
2021/06/17 00:57:11;;;;;;;13.93;6.07;;;17.00;66.90;;;;;;5088510;28;20017;-83
2021/06/17 00:59:37;;;;;;;15.10;6.32;;;17.10;67.50;;;;;;5083493;28;20030;-83
2021/06/17 01:02:07;;;;;;;17.67;6.05;;;17.10;66.30;;;;;;5094789;28;20516;-81
2021/06/17 01:04:33;;;;;;;17.88;6.35;;;17.10;66.30;;;;;;5087310;28;20047;-83
2021/06/17 01:06:59;;;;;;;14.60;6.55;;;17.10;66.90;;;;;;5088627;28;20059;-83
2021/06/17 01:09:50;;;;;;;11.95;6.28;;;17.10;66.80;;;;;;5089084;28;20071;-83
2021/06/17 01:12:27;;;;;;;15.25;6.55;;;17.20;67.20;;;;;;5062528;28;20028;-82
2021/06/17 01:15:03;;;;;;;16.73;6.35;;;17.20;67.30;;;;;;5090972;28;20130;-82
2021/06/17 01:17:35;;;;;;;15.63;6.35;;;17.20;68.40;;;;;;5099592;28;20024;-83
2021/06/17 01:20:04;;;;;;;13.45;5.63;;;17.10;69.10;;;;;;5083380;28;20012;-83
2021/06/17 01:22:48;;;;;;;19.88;6.18;;;17.10;69.50;;;;;;5090504;28;20032;-84
2021/06/17 01:25:22;;;;;;;13.32;5.80;;;17.00;69.90;;;;;;5074307;28;20473;-85
2021/06/17 01:28:21;;;;;;;16.08;6.18;;;17.00;70.30;;;;;;5061771;28;20151;-83
2021/06/17 01:30:55;;;;;;;12.90;5.65;;;17.00;69.90;;;;;;5050084;28;20473;-83
2021/06/17 01:33:25;;;;;;;15.57;5.38;;;17.00;70.60;;;;;;5087779;28;20017;-81
2021/06/17 01:35:55;;;;;;;12.68;5.72;;;17.00;70.50;;;;;;5089503;28;20350;-83
2021/06/17 01:38:24;;;;;;;20.88;6.15;;;17.00;70.70;;;;;;5088304;28;20104;-83
2021/06/17 01:40:50;;;;;;;12.73;5.55;;;17.10;70.90;;;;;;5073506;28;20048;-82
2021/06/17 01:43:18;;;;;;;10.23;6.00;;;17.10;70.90;;;;;;5059561;28;20020;-82
2021/06/17 01:45:47;;;;;;;;;;;17.10;70.70;;;;;;5073804;28;20028;-83
2021/06/17 01:48:15;;;;;;;14.05;6.13;;;17.10;69.90;;;;;;5073360;28;19912;-82
2021/06/17 01:50:44;;;;;;;16.75;7.45;;;17.10;70.40;;;;;;5063871;28;20024;-82
2021/06/17 01:53:13;;;;;;;15.82;7.05;;;17.10;70.20;;;;;;5065003;28;20033;-82
2021/06/17 01:55:41;;;;;;;20.40;6.95;;;17.20;70.00;;;;;;5054857;28;20449;-84
2021/06/17 01:58:13;;;;;;;19.98;7.38;;;17.30;70.20;;;;;;5073225;28;20393;-84
2021/06/17 02:00:43;;;;;;;15.15;6.75;;;17.30;70.10;;;;;;5071219;28;20020;-82
2021/06/17 02:03:09;;;;;;;11.43;6.07;;;17.40;70.30;;;;;;5066485;28;20407;-83
2021/06/17 02:05:38;;;;;;;14.50;7.38;;;17.40;70.20;;;;;;5064195;28;20084;-82
2021/06/17 02:08:07;;;;;;;12.70;6.60;;;17.40;70.30;;;;;;5080746;28;20043;-83
2021/06/17 02:10:34;;;;;;;14.88;7.15;;;17.50;70.40;;;;;;5074329;28;20044;-82
2021/06/17 02:13:01;;;;;;;16.23;6.75;;;17.50;71.00;;;;;;5073519;28;20024;-83
2021/06/17 02:15:29;;;;;;;10.15;7.15;;;17.50;70.40;;;;;;5055598;28;20028;-83
2021/06/17 02:17:57;;;;;;;12.40;6.00;;;17.60;70.70;;;;;;5073856;28;20103;-81
2021/06/17 02:20:23;;;;;;;10.80;5.80;;;17.70;70.20;;;;;;5074022;28;20079;-83
2021/06/17 02:22:53;;;;;;;12.27;6.43;;;17.70;70.00;;;;;;5073786;28;20040;-84
2021/06/17 02:25:21;;;;;;;14.02;6.55;;;17.80;69.60;;;;;;5074394;28;20528;-82
2021/06/17 02:27:52;;;;;;;12.20;5.85;;;17.80;68.70;;;;;;5073641;28;20036;-83
2021/06/17 02:30:18;;;;;;;7.10;5.63;;;17.90;68.30;;;;;;5056467;28;20047;-85
2021/06/17 02:32:54;;;;;;;11.32;4.78;;;17.90;67.60;;;;;;5055040;28;20448;-86
2021/06/17 02:35:24;;;;;;;8.63;4.63;;;18.00;65.80;;;;;;5073303;28;20052;-83
2021/06/17 02:37:55;;;;;;;12.05;4.18;;;18.10;63.30;;;;;;5072764;28;20431;-84
2021/06/17 02:40:24;;;;;;;11.30;3.70;;;18.10;61.90;;;;;;5061882;28;20042;-83
2021/06/17 02:42:52;;;;;;;12.75;3.92;;;18.20;60.70;;;;;;5060605;28;20028;-82
2021/06/17 02:45:18;;;;;;;6.45;3.75;;;18.20;60.10;;;;;;5057543;28;20036;-82
2021/06/17 02:47:44;;;;;;;10.98;3.35;;;18.30;59.80;;;;;;5055749;28;20091;-83
2021/06/17 02:50:10;;;;;;;5.88;2.92;;;18.40;58.80;;;;;;5055187;28;20019;-83
2021/06/17 02:52:40;;;;;;;5.65;2.80;;;18.50;57.90;;;;;;5054124;28;20087;-83
2021/06/17 02:55:07;;;;;;;8.35;2.80;;;18.60;57.10;;;;;;5053554;28;20057;-82
2021/06/17 02:57:48;;;;;;;5.18;2.92;;;18.70;56.80;;;;;;5053461;28;20031;-81
2021/06/17 03:00:19;;;;;;;14.88;3.35;;;18.80;56.90;;;;;;5052966;28;20027;-82
2021/06/17 03:02:50;;;;;;;5.57;3.13;;;18.90;56.60;;;;;;5052612;28;20025;-83
2021/06/17 03:05:25;;;;;;;4.80;2.55;;;19.10;56.80;;;;;;5052442;28;20029;-83
2021/06/17 03:08:02;;;;;;;8.02;3.05;;;19.30;56.00;;;;;;5032375;28;20434;-82
2021/06/17 03:10:30;;;;;;;9.48;2.90;;;19.60;55.70;;;;;;5046467;28;20425;-82
2021/06/17 03:12:59;;;;;;;2.75;1.85;;;19.80;53.30;;;;;;5052833;28;20028;-84
2021/06/17 03:15:31;;;;;;;5.85;1.98;;;19.90;52.10;;;;;;5052509;28;20436;-82
2021/06/17 03:18:01;;;;;;;5.88;2.17;;;19.90;52.20;;;;;;5056389;28;20071;-82
2021/06/17 03:20:31;;;;;;;9.82;2.30;;;20.00;52.10;;;;;;5047486;28;20033;-84
2021/06/17 03:22:58;;;;;;;6.72;1.98;;;20.00;52.00;;;;;;5055827;28;20028;-83
2021/06/17 03:25:25;;;;;;;6.10;2.50;;;20.00;51.60;;;;;;5046268;28;20025;-82
2021/06/17 03:27:53;;;;;;;14.15;2.80;;;20.10;52.90;;;;;;5055810;28;20120;-83
2021/06/17 03:30:24;;;;;;;6.90;2.70;;;20.10;52.40;;;;;;5055994;28;20382;-83
2021/06/17 03:32:51;;;;;;;9.45;4.82;;;20.20;52.60;;;;;;5056000;28;20082;-83
2021/06/17 03:35:19;;;;;;;8.77;2.80;;;20.10;51.50;;;;;;5056012;28;20045;-82
2021/06/17 03:37:48;;;;;;;9.00;3.28;;;20.20;51.60;;;;;;5056366;28;20086;-83
2021/06/17 03:40:15;;;;;;;5.80;2.80;;;20.20;51.60;;;;;;5070501;28;20063;-83
2021/06/17 03:42:43;;;;;;;7.40;3.13;;;20.20;52.10;;;;;;5090492;28;20026;-83
2021/06/17 03:45:09;;;;;;;6.35;2.85;;;20.30;51.70;;;;;;5076021;28;20032;-82
2021/06/17 03:47:36;;;;;;;10.77;3.95;;;20.30;51.50;;;;;;5076563;28;20064;-82
2021/06/17 03:50:02;;;;;;;5.88;2.85;;;20.40;51.50;;;;;;5044841;28;20012;-82
2021/06/17 03:52:32;;;;;;;10.40;3.13;;;20.40;51.70;;;;;;5061344;28;20024;-84
2021/06/17 03:54:58;;;;;;;3.28;2.28;;;20.50;51.30;;;;;;5075615;28;20048;-83
2021/06/17 03:57:24;;;;;;;8.25;2.30;;;20.60;52.00;;;;;;5061248;28;20411;-83
2021/06/17 03:59:52;;;;;;;9.27;2.93;;;20.70;51.30;;;;;;5084532;28;20115;-82
2021/06/17 04:02:18;;;;;;;6.47;2.80;;;20.80;51.00;;;;;;5089774;28;20595;-82
2021/06/17 04:04:45;;;;;;;6.80;2.60;;;20.80;50.90;;;;;;5075253;28;20040;-80
2021/06/17 04:07:18;;;;;;;6.23;2.73;;;20.90;51.50;;;;;;5078563;28;20020;-82
2021/06/17 04:09:44;;;;;;;9.55;2.65;;;20.90;50.90;;;;;;5090339;28;20021;-82
2021/06/17 04:12:13;;;;;;;13.43;3.00;;;21.00;50.20;;;;;;5103165;28;20016;-81
2021/06/17 04:14:43;;;;;;;9.93;2.60;;;21.00;49.60;;;;;;5083627;28;20424;-83
2021/06/17 04:17:12;;;;;;;4.75;2.45;;;21.10;49.80;;;;;;5081749;28;20033;-82
2021/06/17 04:19:40;;;;;;;4.60;2.60;;;21.10;49.60;;;;;;5090489;28;20043;-83
2021/06/17 04:22:09;;;;;;;5.80;2.45;;;21.20;49.50;;;;;;5092051;28;20028;-82
2021/06/17 04:24:40;;;;;;;5.45;2.45;;;21.20;49.60;;;;;;5072404;28;20070;-80
2021/06/17 04:27:07;;;;;;;6.90;2.33;;;21.20;49.20;;;;;;5079011;28;20025;-84
2021/06/17 04:29:38;;;;;;;5.45;2.45;;;21.30;49.20;;;;;;5074211;28;20541;-82
2021/06/17 04:32:07;;;;;;;9.20;2.10;;;21.40;48.90;;;;;;5074921;28;20035;-83
2021/06/17 04:34:34;;;;;;;6.47;2.35;;;21.40;48.60;;;;;;5056343;28;20025;-82
2021/06/17 04:37:03;;;;;;;9.68;2.17;;;21.40;48.90;;;;;;5074427;28;20068;-82
2021/06/17 04:39:29;;;;;;;4.95;2.53;;;21.50;48.90;;;;;;5072864;28;20044;-84
2021/06/17 04:42:03;;;;;;;4.20;2.22;;;21.50;49.10;;;;;;5059535;28;20025;-85
2021/06/17 04:44:30;;;;;;;8.07;2.40;;;21.60;48.80;;;;;;5069968;28;20375;-82
2021/06/17 04:46:57;;;;;;;10.82;2.90;;;21.70;49.40;;;;;;5055948;28;20028;-81
2021/06/17 04:49:24;;;;;;;13.98;3.10;;;21.60;49.20;;;;;;5071411;28;20446;-83
2021/06/17 04:51:53;;;;;;;14.50;3.22;;;21.60;49.30;;;;;;5059786;28;20027;-83
2021/06/17 04:54:19;;;;;;;16.88;3.58;;;21.70;49.80;;;;;;5073959;28;20059;-82
2021/06/17 04:56:45;;;;;;;10.15;3.15;;;21.60;49.90;;;;;;5056085;28;20024;-82
2021/06/17 04:59:12;;;;;;;10.10;2.83;;;21.60;49.90;;;;;;5074216;28;20027;-83
2021/06/17 05:01:40;;;;;;;9.13;3.05;;;21.60;50.00;;;;;;5074472;28;20334;-84
2021/06/17 05:04:07;;;;;;;10.63;2.53;;;21.60;50.20;;;;;;5073877;28;20515;-81
2021/06/17 05:06:35;;;;;;;8.13;3.03;;;21.40;50.70;;;;;;5073826;28;20028;-82
2021/06/17 05:11:46;;;;;;;15.95;3.08;;;21.60;49.90;;;;;;5065231;28;20032;-83
2021/06/17 05:14:13;;;;;;;6.57;2.55;;;22.10;49.60;;;;;;5055422;28;20025;-81
2021/06/17 05:16:38;;;;;;;9.95;3.00;;;22.70;48.20;;;;;;5077760;28;20650;-83
2021/06/17 05:19:14;;;;;;;6.90;2.72;;;23.60;46.40;;;;;;5046351;28;20024;-81
2021/06/17 05:21:40;;;;;;;6.50;2.70;;;24.90;44.20;;;;;;5090242;28;20496;-82
2021/06/17 05:24:07;;;;;;;8.45;2.40;;;26.10;41.90;;;;;;5073646;28;20032;-82
2021/06/17 05:26:34;;;;;;;9.43;2.47;;;27.10;39.40;;;;;;5073832;28;20102;-87
2021/06/17 05:28:59;;;;;;;11.80;2.53;;;28.00;38.10;;;;;;5067630;28;20045;-85
2021/06/17 05:31:26;;;;;;;3.05;2.33;;;29.00;37.60;;;;;;5038125;28;20028;-85
2021/06/17 05:33:52;;;;;;;5.68;2.40;;;29.70;36.30;;;;;;5056047;28;20025;-87
2021/06/17 05:36:18;;;;;;;4.28;1.85;;;29.20;36.10;;;;;;5064999;28;20055;-86
2021/06/17 05:38:44;;;;;;;8.27;2.55;;;29.80;35.30;;;;;;5080166;28;20490;-89
2021/06/17 05:41:11;;;;;;;4.30;1.30;;;30.50;34.10;;;;;;5060588;28;20053;-88
2021/06/17 05:43:37;;;;;;;;;;;31.30;32.90;;;;;;5066548;28;20017;-87
2021/06/17 05:46:03;;;;;;;1.45;0.90;;;31.70;34.10;;;;;;5069768;28;19950;-89
2021/06/17 05:48:29;;;;;;;3.50;1.20;;;31.00;30.40;;;;;;5063589;28;20099;-88
2021/06/17 05:50:56;;;;;;;3.40;1.20;;;30.40;31.70;;;;;;5055389;28;20079;-88
2021/06/17 05:53:22;;;;;;;5.05;1.45;;;30.90;30.80;;;;;;5055073;28;20108;-89
2021/06/17 05:55:49;;;;;;;2.20;1.60;;;31.50;30.90;;;;;;5037406;28;20507;-88
2021/06/17 05:58:15;;;;;;;4.93;1.70;;;32.10;31.00;;;;;;5054878;28;20029;-87
2021/06/17 06:00:42;;;;;;;2.70;1.30;;;31.60;30.30;;;;;;5056420;28;20028;-89
2021/06/17 06:03:08;;;;;;;3.45;1.40;;;31.40;30.00;;;;;;5056251;28;20128;-86
2021/06/17 06:05:35;;;;;;;8.88;1.55;;;32.20;29.80;;;;;;5054661;28;20474;-88
2021/06/17 06:08:03;;;;;;;4.68;0.60;;;32.90;29.80;;;;;;5037839;28;20037;-88
2021/06/17 06:10:29;;;;;;;7.38;2.17;;;33.60;27.90;;;;;;5059480;28;20033;-89
2021/06/17 06:12:56;;;;;;;5.57;1.60;;;34.10;27.60;;;;;;5055802;28;20398;-87
2021/06/17 06:15:22;;;;;;;;;;;34.80;27.10;;;;;;5067190;28;20021;-90
2021/06/17 06:17:48;;;;;;;2.85;0.98;;;34.90;27.70;;;;;;5057781;28;19928;-85
2021/06/17 06:20:14;;;;;;;1.27;1.00;;;35.30;27.10;;;;;;5056927;28;20482;-89
2021/06/17 06:22:41;;;;;;;2.20;1.08;;;36.10;27.00;;;;;;5039508;28;20250;-88
2021/06/17 06:25:08;;;;;;;2.55;1.00;;;36.90;26.60;;;;;;5056194;28;20487;-88
2021/06/17 06:27:34;;;;;;;;;;;37.90;26.10;;;;;;5066805;28;20071;-89
2021/06/17 06:30:03;;;;;;;4.78;0.70;;;38.60;27.30;;;;;;5057951;28;19909;-88
2021/06/17 06:32:29;;;;;;;5.75;0.90;;;39.30;24.60;;;;;;5057422;28;20475;-87
2021/06/17 06:34:57;;;;;;;3.47;0.70;;;38.50;24.60;;;;;;5058024;28;20082;-88
2021/06/17 06:37:24;;;;;;;4.35;1.45;;;37.70;24.70;;;;;;5055143;28;20071;-87
2021/06/17 06:39:49;;;;;;;;;;;37.80;25.20;;;;;;5042627;28;20056;-87
2021/06/17 06:42:15;;;;;;;;;;;38.20;26.10;;;;;;5029300;28;19928;-87
2021/06/17 06:44:41;;;;;;;;;;;39.00;25.30;;;;;;5058556;28;19909;-88
2021/06/17 06:47:07;;;;;;;3.47;1.00;;;38.50;25.40;;;;;;5064852;28;19905;-87
2021/06/17 06:49:33;;;;;;;2.47;1.23;;;38.70;24.90;;;;;;5055895;28;20037;-87
2021/06/17 06:51:58;;;;;;;2.03;0.90;;;39.10;24.40;;;;;;5058601;28;20068;-90
2021/06/17 06:54:25;;;;;;;2.55;1.30;;;39.60;24.30;;;;;;5040630;28;20029;-86
2021/06/17 06:56:50;;;;;;;;;;;40.40;24.00;;;;;;5045974;28;20035;-89
2021/06/17 06:59:17;;;;;;;2.08;0.95;;;40.10;24.70;;;;;;5058345;28;20011;-87
2021/06/17 07:01:43;;;;;;;1.40;0.90;;;39.80;23.90;;;;;;5060666;28;20025;-86
2021/06/17 07:04:09;;;;;;;2.55;1.30;;;39.40;24.00;;;;;;5041874;28;20025;-88
2021/06/17 07:06:35;;;;;;;1.67;0.70;;;39.00;24.10;;;;;;5042106;28;20075;-90
2021/06/17 07:09:01;;;;;;;1.13;0.70;;;38.80;24.40;;;;;;5062300;28;20044;-87
2021/06/17 07:11:27;;;;;;;3.17;0.80;;;38.80;24.00;;;;;;5062066;28;20520;-89
2021/06/17 07:13:53;;;;;;;4.47;1.30;;;39.00;23.90;;;;;;5056766;28;20036;-86
2021/06/17 07:16:19;;;;;;;2.20;0.70;;;39.60;24.30;;;;;;5042759;28;20028;-92
2021/06/17 07:18:45;;;;;;;8.95;1.40;;;40.20;24.00;;;;;;5058949;28;20095;-89
2021/06/17 07:21:13;;;;;;;1.65;0.80;;;40.70;23.50;;;;;;5059039;28;20055;-90
2021/06/17 07:23:39;;;;;;;4.18;0.70;;;40.90;23.20;;;;;;5057753;28;20036;-88
2021/06/17 07:26:05;;;;;;;1.77;0.75;;;40.70;22.80;;;;;;5060268;28;20020;-90
2021/06/17 07:28:31;;;;;;;1.67;0.82;;;40.10;23.40;;;;;;5057227;28;20072;-89
2021/06/17 07:30:57;;;;;;;3.35;0.77;;;40.30;23.00;;;;;;5058976;28;20025;-88
2021/06/17 07:33:23;;;;;;;3.75;2.30;;;40.60;23.30;;;;;;5034137;28;20092;-88
2021/06/17 07:35:49;;;;;;;3.25;0.85;;;41.40;23.10;;;;;;5067487;28;20057;-89
2021/06/17 07:38:15;;;;;;;3.47;1.10;;;;;;;;;;5048036;28;20029;-89
2021/06/17 07:40:42;;;;;;;2.38;0.82;;;41.90;22.60;;;;;;5067926;28;20078;-88
2021/06/17 07:43:09;;;;;;;0.70;0.52;;;41.90;22.70;;;;;;5080484;28;20100;-89
2021/06/17 07:45:37;;;;;;;2.88;0.70;;;41.30;23.20;;;;;;5077422;28;20165;-89
2021/06/17 07:48:03;;;;;;;1.85;0.70;;;41.70;23.00;;;;;;5059545;28;20156;-89
2021/06/17 07:50:29;;;;;;;5.10;1.48;;;42.00;23.10;;;;;;5067933;28;20020;-89
2021/06/17 07:52:56;;;;;;;;;;;41.00;22.70;;;;;;5088692;28;20025;-90
2021/06/17 07:55:22;;;;;;;4.65;3.00;;;40.00;23.30;;;;;;5076866;28;19911;-91
2021/06/17 07:57:49;;;;;;;4.80;0.93;;;38.80;23.80;;;;;;5078355;28;20024;-90
2021/06/17 08:00:15;;;;;;;4.95;1.45;;;38.70;23.80;;;;;;5059231;28;20504;-90
2021/06/17 08:02:41;;;;;;;3.20;1.25;;;39.10;24.20;;;;;;5063327;28;20020;-88
2021/06/17 08:05:08;;;;;;;1.95;0.70;;;40.10;24.10;;;;;;5059529;28;20465;-89
2021/06/17 08:07:34;;;;;;;4.43;1.77;;;40.60;23.50;;;;;;5055625;28;20022;-89
2021/06/17 08:09:59;;;;;;;2.78;1.23;;;40.30;23.60;;;;;;5068829;28;20031;-92
2021/06/17 08:12:26;;;;;;;4.07;1.10;;;40.10;23.70;;;;;;5061753;28;20032;-91
2021/06/17 08:14:52;;;;;;;2.42;1.10;;;40.60;23.50;;;;;;5078656;28;20031;-87
2021/06/17 08:17:18;;;;;;;;;;;41.30;23.00;;;;;;5102270;28;20016;-90
2021/06/17 08:19:44;;;;;;;3.53;1.02;;;41.70;23.70;;;;;;5062784;28;19928;-90
2021/06/17 08:22:11;;;;;;;;;;;42.50;23.00;;;;;;5084787;28;20434;-90
2021/06/17 08:24:43;;;;;;;3.63;1.20;;;42.20;23.30;;;;;;5080220;28;19911;-89
2021/06/17 08:27:10;;;;;;;2.28;0.80;;;42.30;22.80;;;;;;5080171;28;20063;-88
2021/06/17 08:29:36;;;;;;;4.13;1.30;;;42.30;22.10;;;;;;5067575;28;20063;-88
2021/06/17 08:32:03;;;;;;;1.98;1.00;;;41.10;22.30;;;;;;5080276;28;20020;-87
2021/06/17 08:34:29;;;;;;;1.23;1.00;;;40.50;22.70;;;;;;5078522;28;20028;-89
2021/06/17 08:36:56;;;;;;;2.20;0.80;;;39.90;23.40;;;;;;5085791;28;20129;-88
2021/06/17 08:39:22;;;;;;;2.50;0.80;;;40.70;23.00;;;;;;5084775;28;20102;-89
2021/06/17 08:41:47;;;;;;;;;;;41.20;22.60;;;;;;5077968;28;20024;-89
2021/06/17 08:44:14;;;;;;;1.67;0.90;;;41.50;22.80;;;;;;5078492;28;19904;-89
2021/06/17 08:46:40;;;;;;;2.30;0.90;;;42.10;22.60;;;;;;5065404;28;20021;-88
2021/06/17 08:49:08;;;;;;;;;;;42.30;22.50;;;;;;5079626;28;20413;-91
2021/06/17 08:51:35;;;;;;;5.35;0.85;;;42.80;23.00;;;;;;5076222;28;19905;-88
2021/06/17 08:54:01;;;;;;;2.67;0.75;;;43.50;22.10;;;;;;5072868;28;20021;-89
2021/06/17 08:56:27;;;;;;;2.05;1.08;;;43.60;22.00;;;;;;5060255;28;20024;-90
2021/06/17 08:58:59;;;;;;;;;;;42.70;22.10;;;;;;5082635;28;20102;-89
2021/06/17 09:01:27;;;;;;;4.97;1.17;;;42.40;22.60;;;;;;5081537;28;19904;-89
2021/06/17 09:03:54;;;;;;;1.92;1.00;;;42.70;22.40;;;;;;5080521;28;20029;-89
2021/06/17 09:06:23;;;;;;;1.85;0.80;;;42.00;22.70;;;;;;5089107;28;20031;-91
2021/06/17 09:09:00;;;;;;;3.95;1.05;;;42.40;22.60;;;;;;5078918;28;20034;-87
2021/06/17 09:11:27;;;;;;;2.88;0.95;;;42.10;22.70;;;;;;5053837;28;20040;-90
2021/06/17 09:14:18;;;;;;;3.13;1.00;;;41.80;22.40;;;;;;5055861;28;20024;-92
2021/06/17 09:17:06;;;;;;;4.07;1.15;;;42.10;22.90;;;;;;5062148;28;20019;-90
2021/06/17 09:19:37;;;;;;;1.38;0.85;;;43.10;22.70;;;;;;5079019;28;20012;-91
2021/06/17 09:22:08;;;;;;;4.20;1.10;;;42.80;23.00;;;;;;5077548;28;20409;-89
2021/06/17 09:24:37;;;;;;;2.42;0.95;;;43.10;22.30;;;;;;5062815;28;20023;-91
2021/06/17 09:27:22;;;;;;;4.00;0.90;;;43.00;22.10;;;;;;5077505;28;20028;-91
2021/06/17 09:29:49;;;;;;;4.05;1.10;;;42.70;22.30;;;;;;5078325;28;20044;-92
2021/06/17 09:32:22;;;;;;;5.32;1.33;;;42.60;22.30;;;;;;5076980;28;20028;-90
2021/06/17 09:34:49;;;;;;;1.63;1.13;;;42.50;22.30;;;;;;5075822;28;20437;-91
2021/06/17 09:37:32;;;;;;;5.15;1.20;;;42.50;22.50;;;;;;5049081;28;20050;-91
2021/06/17 09:39:59;;;;;;;4.20;1.48;;;42.30;22.60;;;;;;5063116;28;20048;-89
2021/06/17 09:42:31;;;;;;;2.92;1.00;;;42.20;22.50;;;;;;5077588;28;20024;-92
2021/06/17 09:45:16;;;;;;;1.92;1.10;;;41.90;22.50;;;;;;5063014;28;20021;-93
2021/06/17 09:47:44;;;;;;;4.03;1.20;;;42.60;22.60;;;;;;5077482;28;20470;-90
2021/06/17 09:50:28;;;;;;;2.50;1.02;;;42.80;22.20;;;;;;5076403;28;20047;-89
2021/06/17 09:52:57;;;;;;;3.63;1.30;;;42.10;22.40;;;;;;5079874;28;20024;-88
2021/06/17 09:55:40;;;;;;;2.40;1.40;;;41.60;22.40;;;;;;5080768;28;20016;-89
2021/06/17 09:58:10;;;;;;;6.40;1.10;;;41.10;22.60;;;;;;5089845;28;20032;-88
2021/06/17 10:00:36;;;;;;;4.75;1.40;;;40.20;22.50;;;;;;5092479;28;20024;-89
2021/06/17 10:03:15;;;;;;;1.50;1.05;;;39.70;22.90;;;;;;5086608;28;20028;-89
2021/06/17 10:05:41;;;;;;;2.50;1.05;;;40.30;23.10;;;;;;5070475;28;20516;-89
2021/06/17 10:08:07;;;;;;;;;;;41.10;23.20;;;;;;5061523;28;20040;-91
2021/06/17 10:10:36;;;;;;;3.10;1.00;;;41.20;23.20;;;;;;5083714;28;19904;-90
2021/06/17 10:13:05;;;;;;;8.18;2.78;;;41.10;22.90;;;;;;5078338;28;20020;-91
2021/06/17 10:15:34;;;;;;;2.65;1.30;;;40.30;23.00;;;;;;5076733;28;20056;-90
2021/06/17 10:18:05;;;;;;;4.95;1.85;;;39.00;23.40;;;;;;5055962;28;20134;-90
2021/06/17 10:20:31;;;;;;;3.10;1.40;;;38.10;23.90;;;;;;5070792;28;20098;-89
2021/06/17 10:22:57;;;;;;;4.38;1.38;;;38.40;24.00;;;;;;5089313;28;20020;-88
2021/06/17 10:25:32;;;;;;;6.32;1.33;;;39.10;23.80;;;;;;5080952;28;20052;-90
2021/06/17 10:27:58;;;;;;;1.50;0.98;;;39.00;23.90;;;;;;5077736;28;20078;-90
2021/06/17 10:30:46;;;;;;;4.95;1.40;;;39.00;23.50;;;;;;5078043;28;20040;-88
2021/06/17 10:33:34;;;;;;;4.65;1.70;;;37.70;23.90;;;;;;5073293;28;20111;-90
2021/06/17 10:36:38;;;;;;;2.33;1.25;;;35.10;24.90;;;;;;5076145;28;20078;-89
2021/06/17 10:39:10;;;;;;;6.22;1.58;;;32.90;26.80;;;;;;5025515;28;20039;-90
2021/06/17 10:41:58;;;;;;;2.60;1.70;;;31.30;27.40;;;;;;5082837;28;20020;-90
2021/06/17 10:44:42;;;;;;;3.20;1.83;;;30.10;28.70;;;;;;5078646;28;20032;-89
2021/06/17 10:47:08;;;;;;;5.68;1.65;;;29.20;29.30;;;;;;5078530;28;20119;-90
2021/06/17 10:49:49;;;;;;;8.18;1.75;;;28.50;30.00;;;;;;5090658;28;20568;-90
2021/06/17 10:52:25;;;;;;;2.63;1.10;;;27.80;30.10;;;;;;5081983;28;20042;-89
2021/06/17 10:55:07;;;;;;;4.25;1.60;;;27.10;30.90;;;;;;5089126;28;20485;-90
2021/06/17 10:57:49;;;;;;;4.40;1.67;;;26.60;31.50;;;;;;5091093;28;20037;-88
2021/06/17 11:00:33;;;;;;;2.55;1.60;;;26.40;32.60;;;;;;5090151;28;20093;-90
2021/06/17 11:03:04;;;;;;;2.78;1.52;;;26.30;32.50;;;;;;5059150;28;20081;-89
2021/06/17 11:05:30;;;;;;;2.22;1.38;;;26.20;33.20;;;;;;5077904;28;20025;-87
2021/06/17 11:08:23;;;;;;;4.03;1.70;;;26.10;33.10;;;;;;5074695;28;20143;-87
2021/06/17 11:10:50;;;;;;;2.63;1.60;;;26.00;32.40;;;;;;5057192;28;20051;-89
2021/06/17 11:13:38;;;;;;;4.18;1.45;;;25.80;32.90;;;;;;5094303;28;20059;-88
2021/06/17 11:16:27;;;;;;;7.43;1.38;;;25.70;32.20;;;;;;5081480;28;20412;-88
2021/06/17 11:21:26;;;;;;;2.97;1.17;;;25.50;33.40;;;;;;5068306;28;20435;-91
2021/06/17 11:23:53;;;;;;;5.70;1.63;;;25.50;33.00;;;;;;5082940;28;20393;-88
2021/06/17 11:26:40;;;;;;;3.53;1.65;;;25.40;32.80;;;;;;5080586;28;20024;-89
2021/06/17 11:29:20;;;;;;;1.92;1.20;;;25.30;32.40;;;;;;5089873;28;20032;-88
2021/06/17 11:31:54;;;;;;;4.40;1.50;;;25.20;33.10;;;;;;5054284;28;20081;-90
2021/06/17 11:34:29;;;;;;;2.70;1.50;;;25.20;33.60;;;;;;5078400;28;20392;-91
2021/06/17 11:36:57;;;;;;;4.38;1.75;;;25.20;34.00;;;;;;5088709;28;20412;-91
2021/06/17 11:39:24;;;;;;;3.13;1.92;;;25.30;34.10;;;;;;5093686;28;20040;-90
2021/06/17 11:41:50;;;;;;;5.55;1.88;;;25.20;33.90;;;;;;5094925;28;20028;-90
2021/06/17 11:44:24;;;;;;;2.97;1.40;;;25.20;33.40;;;;;;5068932;28;20027;-86
2021/06/17 11:46:51;;;;;;;2.65;1.58;;;25.30;32.90;;;;;;5052667;28;20080;-89
2021/06/17 11:49:18;;;;;;;7.60;1.27;;;25.10;32.70;;;;;;5086365;28;20033;-89
2021/06/17 11:51:53;;;;;;;4.00;1.92;;;25.00;32.50;;;;;;5093254;28;20059;-89
2021/06/17 11:54:25;;;;;;;3.45;1.60;;;25.00;32.60;;;;;;5051902;28;20571;-91
2021/06/17 11:56:59;;;;;;;2.92;1.40;;;24.90;32.70;;;;;;5096932;28;20021;-89
2021/06/17 11:59:36;;;;;;;7.00;1.90;;;24.90;32.90;;;;;;5089703;28;20093;-90
2021/06/17 12:02:18;;;;;;;5.82;1.83;;;24.90;33.60;;;;;;5104146;28;20016;-89
2021/06/17 12:05:10;;;;;;;4.25;1.60;;;24.90;33.00;;;;;;5092802;28;20025;-87
2021/06/17 12:07:49;;;;;;;4.63;1.30;;;25.00;32.80;;;;;;5067000;28;20044;-90
2021/06/17 12:10:20;;;;;;;5.10;2.00;;;25.00;32.90;;;;;;5088312;28;20024;-90
2021/06/17 12:13:00;;;;;;;4.13;1.85;;;25.00;33.40;;;;;;5069454;28;20400;-89
2021/06/17 12:15:37;;;;;;;3.88;1.73;;;25.00;32.50;;;;;;5084445;28;20016;-89
2021/06/17 12:18:03;;;;;;;;;;;25.00;32.60;;;;;;5068164;28;20020;-90
2021/06/17 12:20:35;;;;;;;1.67;1.30;;;24.90;32.30;;;;;;5063271;28;19930;-88
2021/06/17 12:23:05;;;;;;;4.97;1.58;;;24.80;32.40;;;;;;5096991;28;20017;-91
2021/06/17 12:25:42;;;;;;;4.75;1.23;;;24.80;32.30;;;;;;5069318;28;20139;-86
2021/06/17 12:28:10;;;;;;;3.15;2.03;;;24.80;32.10;;;;;;5106601;28;20463;-88
2021/06/17 12:30:36;;;;;;;3.63;1.40;;;24.80;32.70;;;;;;5072734;28;20040;-87
2021/06/17 12:33:32;;;;;;;4.32;1.70;;;24.80;31.90;;;;;;5084277;28;20021;-93
2021/06/17 12:36:14;;;;;;;2.50;1.65;;;24.80;32.40;;;;;;5080528;28;20362;-88
2021/06/17 12:38:41;;;;;;;4.20;1.67;;;24.80;31.40;;;;;;5082221;28;20024;-89
2021/06/17 12:41:11;;;;;;;;;;;24.80;31.40;;;;;;5047534;28;20061;-89
2021/06/17 12:43:46;;;;;;;4.55;1.15;;;24.80;31.40;;;;;;5062938;28;19968;-89
2021/06/17 12:46:13;;;;;;;3.75;1.63;;;24.70;31.30;;;;;;5051667;28;20077;-90
2021/06/17 12:54:30;;;;;;;4.57;1.45;;;24.70;32.10;;;;;;5029111;28;20033;-90
2021/06/17 12:57:03;;;;;;;4.68;1.90;;;24.60;31.90;;;;;;5047787;28;20090;-91
2021/06/17 12:59:35;;;;;;;4.18;2.00;;;24.60;32.70;;;;;;5042897;28;20163;-90
2021/06/17 13:02:01;;;;;;;4.45;2.00;;;24.60;32.10;;;;;;5066590;28;20021;-90
2021/06/17 13:04:27;;;;;;;4.80;2.03;;;24.60;32.30;;;;;;5061636;28;20029;-89
2021/06/17 13:06:58;;;;;;;5.13;1.15;;;24.70;32.00;;;;;;5068552;28;20021;-92
2021/06/17 13:09:25;;;;;;;6.80;1.90;;;24.80;31.30;;;;;;5055137;28;20481;-89
2021/06/17 13:12:33;;;;;;;3.15;1.52;;;24.80;31.40;;;;;;5051106;28;20075;-89
2021/06/17 13:15:12;;;;;;;3.35;1.42;;;24.90;31.10;;;;;;5038677;28;20033;-90